createdAt,value
2023-01-02T00:00:01.463Z,3.60
2023-01-02T00:01:01.516Z,3.70
2023-01-02T00:02:01.596Z,3.80
2023-01-02T00:03:01.504Z,3.80
2023-01-02T00:04:01.562Z,4.10
2023-01-02T00:05:01.387Z,3.90
2023-01-02T00:06:01.403Z,3.60
2023-01-02T00:07:01.396Z,3.70
2023-01-02T00:08:01.380Z,3.90
2023-01-02T00:09:01.384Z,3.50
2023-01-02T00:10:01.381Z,3.90
2023-01-02T00:11:01.363Z,3.80
2023-01-02T00:12:01.339Z,3.50
2023-01-02T00:13:01.347Z,3.80
2023-01-02T00:14:01.300Z,3.50
2023-01-02T00:15:01.307Z,3.60
2023-01-02T00:16:01.368Z,4.10
2023-01-02T00:17:01.285Z,3.90
2023-01-02T00:18:01.273Z,3.50
2023-01-02T00:19:01.251Z,3.70
2023-01-02T00:20:01.262Z,3.70
2023-01-02T00:21:01.228Z,3.70
2023-01-02T00:22:01.251Z,3.70
2023-01-02T00:23:01.291Z,3.60
2023-01-02T00:24:01.206Z,3.60
2023-01-02T00:25:01.405Z,3.60
2023-01-02T00:26:01.169Z,3.50
2023-01-02T00:27:01.170Z,3.60
2023-01-02T00:28:01.140Z,4.40
2023-01-02T00:29:01.135Z,4.40
2023-01-02T00:30:01.185Z,4.20
2023-01-02T00:31:01.184Z,3.80
2023-01-02T00:32:01.101Z,3.80
2023-01-02T00:33:01.106Z,4.20
2023-01-02T00:34:01.104Z,4.10
2023-01-02T00:35:01.096Z,4.30
2023-01-02T00:36:01.070Z,4.80
2023-01-02T00:37:01.052Z,4.40
2023-01-02T00:38:01.042Z,4.30
2023-01-02T00:39:01.015Z,4.10
2023-01-02T00:40:01.015Z,4.40
2023-01-02T00:41:01.017Z,4.50
2023-01-02T00:42:01.042Z,5.00
2023-01-02T00:43:00.974Z,4.20
2023-01-02T00:44:01.009Z,4.40
2023-01-02T00:45:00.987Z,4.60
2023-01-02T00:46:03.658Z,4.10
2023-01-02T00:47:02.405Z,3.90
2023-01-02T00:48:01.919Z,4.40
2023-01-02T00:49:01.021Z,4.30
2023-01-02T00:50:00.920Z,4.10
2023-01-02T00:51:00.958Z,4.50
2023-01-02T00:52:00.908Z,4.20
2023-01-02T00:53:01.171Z,4.50
2023-01-02T00:54:00.929Z,4.40
2023-01-02T00:55:01.398Z,4.60
2023-01-02T00:56:00.914Z,4.60
2023-01-02T01:01:18.505Z,4.70
2023-01-02T01:02:40.542Z,4.80
2023-01-02T01:07:20.187Z,3.90
2023-01-02T01:08:20.696Z,3.80
2023-01-02T01:09:22.429Z,3.80
2023-01-02T01:10:18.763Z,3.70
2023-01-02T01:11:18.806Z,4.00
2023-01-02T01:24:49.349Z,3.80
2023-01-02T01:25:48.871Z,4.20
2023-01-02T01:26:48.779Z,4.10
2023-01-02T01:27:49.030Z,4.20
2023-01-02T01:28:48.904Z,4.20
2023-01-02T01:29:48.761Z,4.00
2023-01-02T01:30:48.895Z,4.30
2023-01-02T01:31:48.943Z,3.90
2023-01-02T01:32:48.872Z,3.80
2023-01-02T01:33:51.209Z,4.50
2023-01-02T01:34:48.950Z,4.40
2023-01-02T01:35:49.995Z,4.40
2023-01-02T01:36:48.760Z,4.10
2023-01-02T01:37:55.923Z,4.10
2023-01-02T01:38:48.568Z,4.50
2023-01-02T01:39:51.523Z,4.50
2023-01-02T01:40:49.552Z,4.20
2023-01-02T01:41:48.557Z,4.20
2023-01-02T01:42:50.396Z,4.00
2023-01-02T01:43:48.508Z,4.00
2023-01-02T01:44:48.515Z,4.50
2023-01-02T01:45:48.525Z,4.60
2023-01-02T01:46:48.486Z,4.50
2023-01-02T01:47:48.496Z,3.80
2023-01-02T01:48:48.473Z,3.70
2023-01-02T01:49:49.218Z,3.90
2023-01-02T01:50:48.464Z,4.20
2023-01-02T01:51:48.431Z,4.20
2023-01-02T01:52:48.423Z,4.40
2023-01-02T01:53:48.405Z,3.90
2023-01-02T01:54:48.404Z,3.70
2023-01-02T01:55:48.392Z,4.20
2023-01-02T01:56:48.379Z,4.20
2023-01-02T01:57:48.378Z,4.20
2023-01-02T01:58:48.350Z,4.00
2023-01-02T01:59:48.360Z,3.70
2023-01-02T02:00:48.401Z,3.60
2023-01-02T02:01:48.493Z,3.80
2023-01-02T02:02:48.448Z,3.80
2023-01-02T02:03:48.327Z,3.90
2023-01-02T02:04:48.284Z,3.80
2023-01-02T02:05:48.269Z,3.40
2023-01-02T02:06:48.268Z,3.30
2023-01-02T02:07:48.281Z,3.60
2023-01-02T02:08:48.261Z,3.70
2023-01-02T02:09:48.228Z,3.60
2023-01-02T02:10:48.262Z,3.70
2023-01-02T02:11:48.223Z,3.50
2023-01-02T02:12:48.187Z,3.40
2023-01-02T02:13:48.188Z,3.20
2023-01-02T02:14:48.175Z,3.50
2023-01-02T02:15:48.169Z,3.70
2023-01-02T02:16:48.201Z,3.60
2023-01-02T02:17:48.137Z,3.50
2023-01-02T02:18:48.157Z,3.30
2023-01-02T02:19:48.131Z,3.60
2023-01-02T02:20:48.095Z,3.40
2023-01-02T02:21:48.094Z,3.70
2023-01-02T02:22:48.079Z,3.70
2023-01-02T02:23:48.090Z,3.40
2023-01-02T02:24:48.086Z,3.50
2023-01-02T02:25:48.084Z,3.50
2023-01-02T02:26:48.033Z,3.70
2023-01-02T02:27:48.091Z,3.60
2023-01-02T02:28:48.028Z,3.50
2023-01-02T02:29:48.025Z,3.40
2023-01-02T02:30:47.998Z,3.40
2023-01-02T02:31:48.025Z,3.50
2023-01-02T02:32:47.981Z,3.60
2023-01-02T02:33:47.984Z,3.50
2023-01-02T02:34:47.946Z,3.30
2023-01-02T02:35:47.945Z,3.30
2023-01-02T02:36:47.963Z,3.40
2023-01-02T02:37:47.917Z,3.40
2023-01-02T02:38:47.908Z,3.70
2023-01-02T02:39:47.909Z,3.40
2023-01-02T02:40:47.916Z,3.30
2023-01-02T02:41:47.864Z,3.50
2023-01-02T02:42:47.857Z,3.40
2023-01-02T02:43:47.861Z,3.40
2023-01-02T02:44:47.850Z,3.90
2023-01-02T02:45:47.874Z,3.40
2023-01-02T02:46:47.816Z,3.20
2023-01-02T02:47:47.817Z,3.50
2023-01-02T02:48:47.805Z,3.40
2023-01-02T02:49:47.788Z,3.60
2023-01-02T02:50:47.767Z,3.30
2023-01-02T02:51:47.764Z,3.30
2023-01-02T02:52:47.771Z,3.10
2023-01-02T02:53:47.759Z,3.30
2023-01-02T02:54:47.722Z,3.40
2023-01-02T02:55:47.732Z,3.70
2023-01-02T02:56:47.714Z,3.60
2023-01-02T02:57:47.700Z,3.20
2023-01-02T02:58:47.697Z,3.30
2023-01-02T02:59:47.690Z,3.30
2023-01-02T03:00:47.730Z,3.60
2023-01-02T03:01:47.692Z,3.60
2023-01-02T03:02:47.714Z,3.50
2023-01-02T03:03:47.645Z,3.50
2023-01-02T03:04:47.631Z,3.30
2023-01-02T03:05:47.606Z,3.60
2023-01-02T03:06:47.606Z,3.70
2023-01-02T03:07:47.597Z,3.90
2023-01-02T03:08:47.575Z,3.70
2023-01-02T03:09:47.566Z,4.00
2023-01-02T03:10:47.581Z,4.20
2023-01-02T03:11:47.548Z,4.40
2023-01-02T03:12:47.522Z,4.70
2023-01-02T03:13:47.522Z,4.30
2023-01-02T03:14:47.521Z,4.30
2023-01-02T03:15:47.548Z,4.00
2023-01-02T03:16:47.539Z,4.10
2023-01-02T03:17:47.622Z,4.00
2023-01-02T03:18:47.469Z,4.60
2023-01-02T03:19:47.452Z,4.60
2023-01-02T03:20:47.430Z,4.30
2023-01-02T03:21:47.484Z,4.10
2023-01-02T03:22:47.426Z,4.10
2023-01-02T03:23:47.432Z,4.30
2023-01-02T03:24:47.436Z,4.50
2023-01-02T03:25:47.382Z,4.80
2023-01-02T03:26:47.387Z,4.60
2023-01-02T03:27:47.361Z,4.70
2023-01-02T03:28:47.366Z,4.50
2023-01-02T03:29:47.350Z,4.50
2023-01-02T03:30:47.361Z,4.90
2023-01-02T03:31:47.318Z,4.80
2023-01-02T03:32:47.303Z,5.10
2023-01-02T03:33:47.301Z,4.80
2023-01-02T03:34:47.281Z,5.00
2023-01-02T03:35:47.281Z,5.10
2023-01-02T03:36:47.279Z,5.20
2023-01-02T03:37:47.251Z,5.50
2023-01-02T03:38:47.253Z,5.20
2023-01-02T03:39:47.473Z,5.20
2023-01-02T03:40:47.253Z,5.10
2023-01-02T03:41:47.211Z,5.40
2023-01-02T03:42:47.205Z,5.70
2023-01-02T03:43:50.133Z,5.10
2023-01-02T03:44:48.183Z,5.30
2023-01-02T03:45:47.192Z,5.20
2023-01-02T03:46:47.151Z,5.50
2023-01-02T03:47:47.141Z,5.40
2023-01-02T03:48:47.130Z,5.60
2023-01-02T03:49:47.132Z,5.40
2023-01-02T03:50:47.100Z,5.20
2023-01-02T03:51:47.136Z,5.10
2023-01-02T03:52:47.101Z,5.40
2023-01-02T03:53:47.085Z,5.10
2023-01-02T03:54:47.076Z,5.60
2023-01-02T03:55:47.058Z,5.50
2023-01-02T03:56:47.052Z,5.00
2023-01-02T03:57:50.801Z,5.00
2023-01-02T03:58:48.038Z,5.00
2023-01-02T03:59:47.022Z,5.10
2023-01-02T04:00:47.010Z,5.40
2023-01-02T04:01:47.072Z,5.30
2023-01-02T04:02:47.110Z,4.80
2023-01-02T04:03:46.995Z,4.80
2023-01-02T04:04:50.659Z,4.40
2023-01-02T04:05:46.986Z,4.90
2023-01-02T04:06:46.942Z,4.90
2023-01-02T04:07:47.003Z,4.90
2023-01-02T04:08:46.933Z,5.50
2023-01-02T04:09:46.921Z,5.40
2023-01-02T04:10:46.901Z,5.60
2023-01-02T04:11:46.914Z,5.80
2023-01-02T04:12:46.857Z,6.00
2023-01-02T04:13:46.856Z,5.80
2023-01-02T04:14:46.845Z,5.60
2023-01-02T04:15:46.904Z,5.80
2023-01-02T04:16:46.835Z,6.00
2023-01-02T04:17:46.829Z,5.90
2023-01-02T04:18:47.258Z,6.00
2023-01-02T04:19:46.871Z,6.00
2023-01-02T04:20:46.791Z,5.50
2023-01-02T04:21:46.791Z,5.60
2023-01-02T04:22:46.751Z,6.00
2023-01-02T04:23:46.773Z,5.80
2023-01-02T04:24:46.759Z,6.00
2023-01-02T04:25:46.734Z,6.00
2023-01-02T04:26:46.723Z,5.40
2023-01-02T04:27:46.728Z,5.50
2023-01-02T04:28:46.713Z,5.40
2023-01-02T04:29:46.675Z,6.00
2023-01-02T04:30:46.730Z,5.90
2023-01-02T04:31:46.671Z,5.60
2023-01-02T04:32:46.654Z,5.90
2023-01-02T04:33:46.639Z,6.10
2023-01-02T04:34:46.639Z,6.30
2023-01-02T04:35:46.605Z,6.80
2023-01-02T04:36:46.626Z,6.60
2023-01-02T04:37:46.591Z,6.80
2023-01-02T04:38:46.610Z,6.40
2023-01-02T04:39:46.991Z,6.60
2023-01-02T04:40:46.571Z,7.00
2023-01-02T04:41:46.563Z,7.00
2023-01-02T04:42:46.550Z,6.60
2023-01-02T04:43:46.525Z,6.70
2023-01-02T04:44:46.527Z,6.40
2023-01-02T04:45:46.544Z,6.60
2023-01-02T04:46:46.501Z,6.70
2023-01-02T04:47:46.475Z,6.60
2023-01-02T04:48:46.480Z,6.20
2023-01-02T04:49:46.476Z,5.40
2023-01-02T04:50:46.448Z,5.70
2023-01-02T04:51:46.447Z,6.20
2023-01-02T04:52:46.414Z,6.10
2023-01-02T04:53:46.429Z,6.90
2023-01-02T04:54:46.415Z,6.40
2023-01-02T04:55:46.418Z,6.60
2023-01-02T04:56:46.380Z,6.60
2023-01-02T04:57:46.371Z,6.60
2023-01-02T04:58:46.374Z,7.50
2023-01-02T04:59:46.352Z,7.10
2023-01-02T05:00:46.334Z,6.60
2023-01-02T05:01:46.418Z,6.70
2023-01-02T05:02:46.400Z,6.50
2023-01-02T05:03:46.356Z,6.70
2023-01-02T05:04:46.323Z,6.90
2023-01-02T05:05:46.284Z,6.50
2023-01-02T05:06:46.294Z,6.40
2023-01-02T05:07:46.307Z,6.50
2023-01-02T05:08:46.242Z,6.50
2023-01-02T05:09:46.261Z,6.80
2023-01-02T05:10:46.237Z,7.10
2023-01-02T05:11:46.235Z,7.00
2023-01-02T05:12:46.193Z,7.10
2023-01-02T05:13:46.230Z,7.10
2023-01-02T05:14:46.188Z,6.90
2023-01-02T05:15:46.215Z,7.30
2023-01-02T05:16:46.152Z,7.50
2023-01-02T05:17:46.159Z,7.70
2023-01-02T05:18:46.147Z,7.10
2023-01-02T05:19:46.131Z,7.00
2023-01-02T05:20:46.125Z,7.40
2023-01-02T05:21:46.117Z,7.00
2023-01-02T05:22:46.110Z,7.40
2023-01-02T05:23:46.099Z,7.60
2023-01-02T05:24:46.087Z,7.00
2023-01-02T05:25:46.067Z,6.90
2023-01-02T05:26:46.061Z,7.20
2023-01-02T05:27:46.044Z,6.90
2023-01-02T05:28:46.047Z,7.60
2023-01-02T05:29:46.033Z,7.70
2023-01-02T05:30:46.027Z,7.30
2023-01-02T05:31:45.996Z,7.30
2023-01-02T05:32:46.033Z,7.30
2023-01-02T05:33:45.984Z,7.10
2023-01-02T05:34:46.056Z,7.80
2023-01-02T05:35:45.969Z,7.70
2023-01-02T05:36:45.933Z,7.30
2023-01-02T05:37:45.946Z,7.10
2023-01-02T05:38:45.931Z,7.00
2023-01-02T05:39:45.917Z,7.70
2023-01-02T05:40:45.922Z,7.80
2023-01-02T05:41:45.928Z,7.60
2023-01-02T05:42:45.863Z,7.40
2023-01-02T05:43:45.867Z,7.30
2023-01-02T05:44:45.840Z,7.40
2023-01-02T05:45:45.840Z,7.40
2023-01-02T05:46:45.871Z,7.40
2023-01-02T05:47:45.832Z,7.30
2023-01-02T05:48:45.802Z,7.20
2023-01-02T05:49:45.806Z,7.40
2023-01-02T05:50:45.807Z,7.00
2023-01-02T05:51:45.784Z,7.20
2023-01-02T05:52:46.236Z,7.30
2023-01-02T05:53:45.773Z,7.40
2023-01-02T05:54:45.739Z,6.70
2023-01-02T05:55:45.721Z,6.70
2023-01-02T05:56:46.464Z,7.00
2023-01-02T05:57:45.736Z,6.70
2023-01-02T05:58:45.728Z,6.60
2023-01-02T05:59:45.679Z,6.40
2023-01-02T06:00:45.695Z,6.50
2023-01-02T06:01:45.714Z,6.80
2023-01-02T06:02:48.360Z,6.70
2023-01-02T06:03:45.704Z,6.20
2023-01-02T06:04:45.644Z,7.00
2023-01-02T06:05:45.620Z,6.50
2023-01-02T06:06:45.609Z,6.40
2023-01-02T06:07:45.610Z,6.70
2023-01-02T06:08:45.598Z,6.60
2023-01-02T06:09:45.613Z,7.10
2023-01-02T06:10:45.572Z,6.70
2023-01-02T06:11:45.574Z,6.60
2023-01-02T06:12:45.539Z,6.60
2023-01-02T06:13:45.533Z,6.70
2023-01-02T06:14:45.550Z,6.90
2023-01-02T06:15:45.532Z,7.20
2023-01-02T06:16:45.576Z,6.90
2023-01-02T06:17:45.489Z,6.40
2023-01-02T06:18:45.479Z,6.30
2023-01-02T06:19:50.272Z,5.90
2023-01-02T06:20:46.497Z,7.00
2023-01-02T06:21:45.456Z,6.40
2023-01-02T06:22:45.453Z,6.20
2023-01-02T06:23:45.448Z,6.00
2023-01-02T06:24:45.409Z,6.90
2023-01-02T06:25:45.418Z,6.40
2023-01-02T06:26:45.410Z,6.30
2023-01-02T06:27:45.388Z,6.40
2023-01-02T06:28:45.435Z,6.10
2023-01-02T06:29:45.364Z,6.20
2023-01-02T06:30:45.361Z,6.90
2023-01-02T06:31:51.071Z,6.80
2023-01-02T06:32:46.316Z,6.20
2023-01-02T06:33:45.331Z,6.60
2023-01-02T06:34:45.302Z,6.30
2023-01-02T06:35:45.298Z,6.60
2023-01-02T06:36:45.287Z,6.50
2023-01-02T06:37:45.280Z,6.90
2023-01-02T06:38:45.275Z,6.70
2023-01-02T06:39:45.247Z,6.80
2023-01-02T06:40:45.234Z,6.20
2023-01-02T06:41:45.239Z,6.50
2023-01-02T06:42:45.227Z,6.40
2023-01-02T06:43:45.223Z,6.60
2023-01-02T06:44:45.184Z,6.70
2023-01-02T06:45:45.245Z,7.00
2023-01-02T06:46:45.175Z,6.40
2023-01-02T06:47:45.166Z,6.40
2023-01-02T06:48:45.135Z,6.50
2023-01-02T06:49:45.145Z,6.80
2023-01-02T06:50:45.128Z,6.70
2023-01-02T06:51:45.121Z,6.20
2023-01-02T06:52:45.128Z,6.20
2023-01-02T06:53:45.107Z,6.50
2023-01-02T06:54:45.113Z,6.30
2023-01-02T06:55:45.054Z,6.80
2023-01-02T06:56:45.063Z,7.00
2023-01-02T06:57:45.070Z,6.40
2023-01-02T06:58:45.073Z,6.60
2023-01-02T06:59:45.013Z,6.10
2023-01-02T07:00:45.097Z,6.70
2023-01-02T07:01:45.177Z,7.40
2023-01-02T07:02:45.106Z,6.70
2023-01-02T07:03:44.981Z,6.40
2023-01-02T07:04:44.991Z,7.10
2023-01-02T07:05:45.014Z,6.90
2023-01-02T07:06:44.963Z,7.00
2023-01-02T07:07:44.973Z,6.90
2023-01-02T07:08:44.936Z,6.40
2023-01-02T07:09:44.903Z,6.30
2023-01-02T07:10:49.454Z,6.80
2023-01-02T07:11:45.874Z,6.50
2023-01-02T07:12:44.873Z,6.90
2023-01-02T07:13:44.919Z,6.50
2023-01-02T07:14:44.865Z,6.50
2023-01-02T07:15:44.846Z,6.30
2023-01-02T07:16:44.915Z,6.70
2023-01-02T07:17:44.821Z,6.60
2023-01-02T07:18:44.813Z,6.90
2023-01-02T07:19:49.868Z,6.90
2023-01-02T07:20:45.802Z,6.10
2023-01-02T07:21:44.784Z,6.80
2023-01-02T07:22:44.782Z,7.10
2023-01-02T07:23:44.754Z,7.00
2023-01-02T07:24:44.827Z,6.90
2023-01-02T07:25:44.925Z,6.90
2023-01-02T07:26:44.748Z,6.80
2023-01-02T07:27:44.723Z,6.70
2023-01-02T07:28:44.723Z,6.20
2023-01-02T07:29:44.695Z,6.60
2023-01-02T07:30:44.683Z,7.20
2023-01-02T07:31:44.716Z,6.80
2023-01-02T07:32:44.663Z,6.70
2023-01-02T07:33:44.643Z,6.30
2023-01-02T07:34:44.650Z,6.80
2023-01-02T07:35:44.636Z,6.20
2023-01-02T07:36:44.621Z,6.50
2023-01-02T07:37:44.617Z,7.10
2023-01-02T07:38:53.736Z,6.70
2023-01-02T07:39:44.701Z,7.00
2023-01-02T07:40:44.640Z,6.80
2023-01-02T07:41:44.709Z,7.10
2023-01-02T07:42:44.693Z,7.00
2023-01-02T07:43:44.645Z,6.60
2023-01-02T07:44:44.658Z,6.30
2023-01-02T07:45:50.042Z,6.40
2023-01-02T07:46:46.934Z,6.30
2023-01-02T07:51:57.088Z,6.10
2023-01-02T07:52:55.645Z,6.00
2023-01-02T07:53:55.590Z,6.00
2023-01-02T08:03:49.228Z,5.70
2023-01-02T08:10:11.436Z,5.40
2023-01-02T08:14:44.927Z,4.80
2023-01-02T08:15:33.257Z,5.00
2023-01-02T08:16:33.664Z,5.50
2023-01-02T08:17:35.486Z,5.40
2023-01-02T08:18:56.870Z,6.00
2023-01-02T08:20:43.152Z,5.60
2023-01-02T08:30:45.223Z,5.20
2023-01-02T08:40:07.754Z,5.60
2023-01-02T08:50:45.946Z,4.10
2023-01-02T08:51:42.307Z,4.00
2023-01-02T08:57:25.240Z,4.50
2023-01-02T09:02:37.138Z,4.60
2023-01-02T09:03:37.645Z,3.70
2023-01-02T09:04:44.188Z,4.70
2023-01-02T09:05:32.822Z,4.70
2023-01-02T09:10:43.035Z,4.00
2023-01-02T09:11:41.339Z,3.90
2023-01-02T09:12:41.397Z,4.00
2023-01-02T09:13:41.851Z,4.30
2023-01-02T09:14:42.031Z,4.30
2023-01-02T09:15:41.238Z,3.90
2023-01-02T09:16:42.683Z,4.20
2023-01-02T09:18:02.484Z,4.50
2023-01-02T09:18:41.536Z,4.00
2023-01-02T09:19:41.193Z,4.40
2023-01-02T09:20:41.090Z,4.70
2023-01-02T09:21:41.090Z,4.60
2023-01-02T09:22:41.378Z,3.90
2023-01-02T09:24:03.247Z,4.30
2023-01-02T09:24:41.500Z,4.70
2023-01-02T09:25:49.055Z,5.60
2023-01-02T09:26:43.072Z,6.40
2023-01-02T09:31:46.857Z,8.20
2023-01-02T09:32:41.191Z,8.30
2023-01-02T09:33:53.616Z,7.60
2023-01-02T09:43:10.954Z,7.00
2023-01-02T09:44:17.287Z,6.30
2023-01-02T09:45:15.439Z,5.30
2023-01-02T09:46:09.350Z,5.20
2023-01-02T09:47:07.137Z,5.40
2023-01-02T09:48:28.393Z,6.20
2023-01-02T09:49:06.993Z,6.30
2023-01-02T09:50:06.321Z,5.60
2023-01-02T09:51:07.983Z,5.50
2023-01-02T09:52:07.348Z,5.60
2023-01-02T09:56:55.819Z,5.50
2023-01-02T09:58:03.708Z,5.50
2023-01-02T09:59:04.076Z,5.70
2023-01-02T09:59:55.371Z,5.70
2023-01-02T10:00:57.711Z,5.20
2023-01-02T10:06:07.568Z,5.10
2023-01-02T10:07:05.613Z,5.50
2023-01-02T10:21:17.778Z,4.90
2023-01-02T10:22:05.674Z,4.50
2023-01-02T10:23:05.595Z,4.30
2023-01-02T10:24:05.689Z,4.40
2023-01-02T10:25:05.599Z,4.20
2023-01-02T10:26:06.019Z,4.50
2023-01-02T10:27:05.870Z,5.00
2023-01-02T10:28:05.582Z,4.90
2023-01-02T10:29:07.008Z,5.00
2023-01-02T10:33:55.141Z,5.00
2023-01-02T10:34:49.170Z,5.00
2023-01-02T10:37:03.070Z,5.10
2023-01-02T10:42:43.417Z,6.00
2023-01-02T10:46:55.161Z,5.80
2023-01-02T10:47:53.406Z,5.90
2023-01-02T10:53:06.936Z,5.60
2023-01-02T11:03:26.063Z,5.20
2023-01-02T11:04:18.281Z,5.20
2023-01-02T11:18:39.725Z,5.20
2023-01-02T11:19:46.619Z,4.70
2023-01-02T11:20:38.107Z,4.80
2023-01-02T11:21:51.127Z,4.60
2023-01-02T11:23:53.869Z,4.20
2023-01-02T11:28:52.682Z,4.20
2023-01-02T12:33:16.941Z,7.60
2023-01-02T12:38:34.595Z,8.30
2023-01-02T12:44:04.235Z,8.70
2023-01-02T12:45:15.352Z,7.60
2023-01-02T13:02:49.858Z,9.60
2023-01-02T13:38:00.554Z,6.70
2023-01-02T13:38:59.681Z,6.80
2023-01-02T14:17:29.017Z,7.40
2023-01-02T14:31:14.545Z,8.20
2023-01-02T14:32:15.171Z,7.20
2023-01-02T14:33:19.937Z,6.60
2023-01-02T14:50:55.785Z,10.40
2023-01-02T14:51:34.555Z,9.70
2023-01-02T14:52:33.611Z,7.70
2023-01-02T14:53:48.725Z,8.00
2023-01-02T14:54:35.392Z,7.80
2023-01-02T14:55:44.435Z,11.80
2023-01-02T15:02:44.357Z,8.80
2023-01-02T15:02:55.010Z,9.70
2023-01-02T15:04:02.700Z,8.50
2023-01-02T15:08:43.245Z,7.70
2023-01-02T15:09:35.474Z,7.50
2023-01-02T15:10:37.404Z,7.70
2023-01-02T15:48:26.245Z,5.50
2023-01-02T15:57:36.649Z,6.50
2023-01-02T16:06:37.919Z,4.70
2023-01-02T16:11:35.845Z,4.80
2023-01-02T16:12:20.479Z,4.90
2023-01-02T16:13:19.191Z,4.80
2023-01-02T16:14:19.114Z,5.20
2023-01-02T16:15:19.116Z,5.30
2023-01-02T16:16:19.564Z,6.00
2023-01-02T16:17:19.078Z,6.10
2023-01-02T16:18:19.088Z,6.70
2023-01-02T16:19:19.061Z,5.80
2023-01-02T16:20:19.291Z,6.80
2023-01-02T16:21:19.011Z,6.60
2023-01-02T16:22:19.426Z,5.00
2023-01-02T16:23:19.877Z,5.00
2023-01-02T16:24:19.092Z,4.90
2023-01-02T16:25:19.402Z,4.80
2023-01-02T16:26:19.047Z,5.40
2023-01-02T16:27:19.024Z,6.50
2023-01-02T16:28:36.121Z,6.00
2023-01-02T16:29:20.027Z,6.40
2023-01-02T16:30:18.865Z,7.80
2023-01-02T16:31:19.046Z,8.60
2023-01-02T16:32:18.897Z,9.80
2023-01-02T17:04:34.286Z,12.10
2023-01-02T17:41:26.849Z,9.90
2023-01-02T17:45:56.256Z,10.90
2023-01-02T18:08:18.179Z,9.20
2023-01-02T18:08:49.124Z,8.70
2023-01-02T18:09:28.870Z,8.40
2023-01-02T18:10:32.604Z,8.20
2023-01-02T18:38:28.867Z,8.60
2023-01-02T18:43:09.520Z,9.10
2023-01-02T18:43:46.422Z,8.40
2023-01-02T18:44:47.158Z,8.10
2023-01-02T18:50:38.023Z,7.50
2023-01-02T18:51:13.291Z,7.20
2023-01-02T19:10:23.653Z,7.60
2023-01-02T19:11:40.637Z,7.90
2023-01-02T19:16:31.664Z,8.80
2023-01-02T19:17:10.498Z,8.90
2023-01-02T19:34:19.902Z,11.60
2023-01-02T19:57:17.784Z,5.40
2023-01-02T20:13:03.882Z,5.90
2023-01-02T20:13:40.719Z,4.50
2023-01-02T20:14:40.672Z,4.30
2023-01-02T20:15:40.789Z,3.80
2023-01-02T20:16:40.644Z,3.70
2023-01-02T20:17:40.720Z,3.70
2023-01-02T20:18:41.152Z,3.00
2023-01-02T20:20:50.411Z,5.90
2023-01-02T20:21:40.545Z,5.30
2023-01-02T20:22:40.926Z,4.20
2023-01-02T20:28:02.986Z,3.90
2023-01-02T20:28:54.942Z,3.60
2023-01-02T20:29:57.320Z,3.10
2023-01-02T20:31:04.869Z,3.20
2023-01-02T20:31:54.957Z,3.20
2023-01-02T20:33:37.431Z,3.40
2023-01-02T20:34:00.440Z,5.40
2023-01-02T20:39:14.809Z,3.40
2023-01-02T20:40:04.392Z,3.40
2023-01-02T20:41:04.558Z,3.70
2023-01-02T20:43:13.038Z,3.90
2023-01-02T20:44:19.196Z,3.90
2023-01-02T20:45:15.505Z,3.80
2023-01-02T20:46:04.247Z,3.70
2023-01-02T20:47:04.273Z,4.00
2023-01-02T20:48:04.570Z,4.50
2023-01-02T20:49:04.358Z,3.90
2023-01-02T20:50:04.107Z,4.10
2023-01-02T20:51:04.207Z,4.00
2023-01-02T20:52:04.064Z,3.50
2023-01-02T20:53:09.035Z,3.70
2023-01-02T20:54:04.142Z,3.80
2023-01-02T20:55:04.136Z,3.70
2023-01-02T20:56:04.068Z,3.80
2023-01-02T20:57:04.007Z,3.70
2023-01-02T20:58:04.023Z,3.30
2023-01-02T20:59:04.964Z,3.50
2023-01-02T21:00:04.140Z,3.40
2023-01-02T21:01:05.284Z,3.40
2023-01-02T21:02:04.181Z,3.20
2023-01-02T21:03:04.241Z,3.00
2023-01-02T21:04:05.130Z,2.80
2023-01-02T21:09:32.535Z,2.80
2023-01-02T21:10:23.691Z,2.90
2023-01-02T21:14:59.178Z,3.00
2023-01-02T21:16:00.723Z,3.10
2023-01-02T21:26:33.401Z,2.80
2023-01-02T21:31:40.662Z,3.70
2023-01-02T21:47:38.664Z,5.20
2023-01-02T21:53:28.698Z,4.50
2023-01-02T21:54:14.392Z,4.30
2023-01-02T21:59:33.795Z,3.80
2023-01-02T22:00:31.399Z,3.60
2023-01-02T22:01:40.839Z,3.90
2023-01-02T22:02:38.626Z,3.90
2023-01-02T22:03:31.958Z,3.90
2023-01-02T22:04:30.753Z,4.10
2023-01-02T22:05:52.231Z,4.00
2023-01-02T22:07:04.280Z,3.90
2023-01-02T22:11:14.448Z,5.10
2023-01-02T22:12:13.057Z,5.10
2023-01-02T22:13:12.299Z,4.70
2023-01-02T22:14:12.072Z,4.80
2023-01-02T22:15:12.079Z,5.40
2023-01-02T22:16:12.009Z,5.00
2023-01-02T22:17:12.065Z,4.20
2023-01-02T22:18:11.933Z,4.00
2023-01-02T22:19:11.902Z,4.60
2023-01-02T22:20:11.914Z,4.90
2023-01-02T22:21:11.873Z,6.20
2023-01-02T22:22:11.885Z,7.10
2023-01-02T22:23:11.851Z,7.00
2023-01-02T22:24:12.043Z,7.20
2023-01-02T22:25:11.975Z,6.60
2023-01-02T22:26:12.255Z,7.00
2023-01-02T22:27:11.966Z,7.20
2023-01-02T22:31:56.009Z,6.40
2023-01-02T22:32:55.784Z,6.20
2023-01-02T22:33:55.607Z,5.50
2023-01-02T22:34:55.509Z,5.80
2023-01-02T22:35:55.701Z,5.80
2023-01-02T22:36:55.513Z,5.50
2023-01-02T22:37:55.578Z,4.90
2023-01-02T22:39:26.337Z,5.50
2023-01-02T22:39:56.497Z,5.20
2023-01-02T22:40:55.503Z,5.70
2023-01-02T22:41:55.774Z,6.20
2023-01-02T22:43:04.852Z,6.80
2023-01-02T22:43:56.472Z,6.30
2023-01-02T22:44:55.764Z,6.40
2023-01-02T22:45:55.916Z,6.40
2023-01-02T22:46:55.622Z,7.70
2023-01-02T22:47:55.743Z,9.20
2023-01-02T22:49:16.931Z,8.30
2023-01-02T22:49:56.899Z,8.40
2023-01-02T22:50:55.642Z,8.10
2023-01-02T22:52:07.067Z,8.30
2023-01-02T22:52:56.794Z,9.10
2023-01-02T22:53:55.964Z,8.40
2023-01-02T22:54:56.103Z,8.80
2023-01-02T22:55:55.391Z,9.80
2023-01-02T22:56:55.307Z,8.90
2023-01-02T22:57:55.259Z,9.70
2023-01-02T22:58:55.347Z,9.80
2023-01-02T22:59:55.289Z,8.80
2023-01-02T23:00:55.216Z,8.10
2023-01-02T23:01:55.522Z,8.00
2023-01-02T23:02:55.303Z,7.50
2023-01-02T23:03:55.242Z,6.50
2023-01-02T23:04:55.217Z,6.00
2023-01-02T23:05:55.187Z,5.40
2023-01-02T23:07:56.351Z,4.80
2023-01-02T23:08:55.336Z,5.20
2023-01-02T23:09:55.250Z,5.20
2023-01-02T23:10:55.317Z,5.30
2023-01-02T23:11:55.149Z,5.00
2023-01-02T23:12:55.105Z,4.60
2023-01-02T23:13:56.897Z,5.00
2023-01-02T23:14:55.121Z,4.80
2023-01-02T23:15:55.250Z,4.30
2023-01-02T23:16:55.197Z,4.40
2023-01-02T23:17:55.225Z,4.00
2023-01-02T23:18:57.116Z,3.80
2023-01-02T23:19:56.113Z,4.30
2023-01-02T23:20:55.125Z,4.80
2023-01-02T23:21:55.036Z,5.40
2023-01-02T23:22:55.017Z,5.40
2023-01-02T23:23:55.039Z,4.80
2023-01-02T23:24:55.017Z,4.50
2023-01-02T23:25:55.041Z,4.20
2023-01-02T23:26:54.965Z,4.10
2023-01-02T23:27:55.028Z,4.90
2023-01-02T23:29:06.455Z,4.90
2023-01-02T23:29:55.949Z,5.50
2023-01-02T23:30:54.940Z,5.70
2023-01-02T23:31:55.132Z,5.70
2023-01-02T23:32:54.919Z,5.90
2023-01-02T23:33:54.846Z,6.30
2023-01-02T23:34:54.904Z,5.40
2023-01-02T23:35:54.958Z,5.30
2023-01-02T23:36:54.908Z,4.60
2023-01-02T23:37:54.843Z,4.80
2023-01-02T23:38:55.427Z,4.70
2023-01-02T23:39:54.848Z,4.80
2023-01-02T23:40:54.898Z,4.70
2023-01-02T23:41:55.260Z,4.10
2023-01-02T23:42:54.836Z,3.90
2023-01-02T23:43:54.865Z,4.00
2023-01-02T23:44:55.003Z,3.70
2023-01-02T23:45:55.084Z,4.20
2023-01-02T23:46:55.164Z,4.40
2023-01-02T23:51:53.827Z,4.30
2023-01-02T23:52:52.852Z,4.70
2023-01-02T23:53:52.868Z,4.60
2023-01-02T23:54:52.787Z,4.80
2023-01-02T23:55:52.861Z,4.90
2023-01-02T23:56:52.800Z,4.80
2023-01-02T23:57:52.755Z,4.90
2023-01-02T23:58:52.734Z,5.40
2023-01-02T23:59:52.744Z,5.20
